Flight Track Log - Related Links

Times and Time Zones

All times are in EDT time to prevent confusion due to time zone crossing. See the N789EX flight status page for this flight to view local times or setup timezone preferences in your user account.


Time Position Orientation Groundspeed Altitude Reporting Facility
EDT Latitude Longitude Course Direction KTS MPH feet Rate Location/Type
Tue 11:27:07 AM 47.4912 -122.2670 144° Southeast 209 241 1,600  Level FlightAware ADS-B
Tue 11:27:23 AM 47.4785 -122.2540 144° Southeast 226 260 2,100 2,129 Climbing FlightAware ADS-B
Tue 11:27:38 AM 47.4647 -122.2390 146° Southeast 242 278 2,700 2,286 Climbing FlightAware ADS-B
Tue 11:27:44 AM 47.4596 -122.2340 144° Southeast 247 284 2,900 2,667 Climbing FlightAware ADS-B
Tue 11:27:47 AM 47.4562 -122.2300 141° Southeast 250 288 3,100 2,571 Climbing FlightAware ADS-B
Tue 11:27:51 AM 47.4528 -122.2260 137° Southeast 255 293 3,200 2,250 Climbing FlightAware ADS-B
Tue 11:27:55 AM 47.4496 -122.2210 132° Southeast 259 298 3,400 2,571 Climbing FlightAware ADS-B
Tue 11:27:58 AM 47.4473 -122.2160 129° Southeast 263 303 3,500 1,714 Climbing FlightAware ADS-B
Tue 11:28:02 AM 47.4447 -122.2120 126° Southeast 265 305 3,600 857 Climbing FlightAware ADS-B
Tue 11:28:05 AM 47.4428 -122.2070 122° Southeast 268 308 3,600 1,000 Level FlightAware ADS-B
Tue 11:28:08 AM 47.4407 -122.2010 116° Southeast 273 314 3,700 2,571 Climbing FlightAware ADS-B
Tue 11:28:12 AM 47.4391 -122.1950 110° East 275 316 3,900 2,571 Climbing FlightAware ADS-B
Tue 11:28:15 AM 47.4380 -122.1880 103° East 277 319 4,000 3,000 Climbing FlightAware ADS-B
Tue 11:28:18 AM 47.4374 -122.1830 99° East 278 320 4,200 2,571 Climbing FlightAware ADS-B
Tue 11:28:22 AM 47.4369 -122.1770 96° East 277 319 4,300 1,714 Climbing FlightAware ADS-B
Tue 11:28:25 AM 47.4366 -122.1710 94° East 277 319 4,400 1,765 Climbing FlightAware ADS-B
Tue 11:28:39 AM 47.4367 -122.1450 88° East 275 316 4,800 1,862 Climbing FlightAware ADS-B
Tue 11:28:54 AM 47.4372 -122.1160 89° East 284 327 5,300 1,600 Climbing FlightAware ADS-B
Tue 11:29:09 AM 47.4374 -122.0870 90° East 281 323 5,600 600 Climbing FlightAware ADS-B
Tue 11:29:24 AM 47.4373 -122.0580 91° East 279 321 5,600  Level FlightAware ADS-B
Tue 11:29:38 AM 47.4370 -122.0320 91° East 280 322 5,600  Level FlightAware ADS-B
Tue 11:29:53 AM 47.4365 -122.0030 92° East 281 323 5,600 387 Level FlightAware ADS-B
Tue 11:30:09 AM 47.4359 -121.9730 92° East 283 326 5,800 1,548 Climbing FlightAware ADS-B
Tue 11:30:24 AM 47.4351 -121.9440 92° East 284 327 6,400 3,000 Climbing FlightAware ADS-B
Tue 11:30:39 AM 47.4343 -121.9150 92° East 284 327 7,300 3,000 Climbing FlightAware ADS-B
Tue 11:30:54 AM 47.4335 -121.8850 92° East 282 325 7,900 2,129 Climbing FlightAware ADS-B
Tue 11:31:10 AM 47.4327 -121.8540 92° East 286 329 8,400 2,129 Climbing FlightAware ADS-B
Tue 11:31:25 AM 47.4320 -121.8240 92° East 290 334 9,000 1,935 Climbing FlightAware ADS-B
Tue 11:31:41 AM 47.4313 -121.7940 92° East 293 337 9,400 1,161 Climbing FlightAware ADS-B
Tue 11:31:56 AM 47.4305 -121.7630 92° East 298 343 9,600 400 Climbing FlightAware ADS-B
Tue 11:32:11 AM 47.4299 -121.7330 92° East 296 341 9,600 207 Level FlightAware ADS-B
Tue 11:32:25 AM 47.4292 -121.7050 92° East 294 338 9,700 621 Climbing FlightAware ADS-B
Tue 11:32:40 AM 47.4288 -121.6740 91° East 304 350 9,900 1,333 Climbing FlightAware ADS-B
Tue 11:33:10 AM 47.4280 -121.6090 91° East 322 371 10,700 1,810 Climbing FlightAware ADS-B
Tue 11:33:43 AM 47.4272 -121.5360 91° East 329 379 11,800 1,688 Climbing FlightAware ADS-B
Tue 11:34:14 AM 47.4260 -121.4650 91° East 344 396 12,500 1,475 Climbing FlightAware ADS-B
Tue 11:34:44 AM 47.4248 -121.3910 91° East 364 419 13,300 1,869 Climbing FlightAware ADS-B
Tue 11:35:15 AM 47.4234 -121.3150 91° East 371 427 14,400 1,377 Climbing FlightAware ADS-B
Tue 11:35:45 AM 47.4221 -121.2400 92° East 369 425 14,700 200 Climbing FlightAware ADS-B
Tue 11:36:15 AM 47.4207 -121.1640 92° East 369 425 14,600 -100 Descending FlightAware ADS-B
Tue 11:36:45 AM 47.4194 -121.0880 92° East 369 425 14,600  Level FlightAware ADS-B
Tue 11:37:15 AM 47.4179 -121.0110 92° East 371 427 14,600  Level FlightAware ADS-B
Tue 11:37:46 AM 47.4164 -120.9340 92° East 372 428 14,600  Level FlightAware ADS-B
Tue 11:38:16 AM 47.4149 -120.8580 92° East 371 427 14,600  Level FlightAware ADS-B
Tue 11:38:46 AM 47.4132 -120.7830 92° East 372 428 14,600  Level FlightAware ADS-B
Tue 11:39:17 AM 47.4115 -120.7020 92° East 373 429 14,600  Level FlightAware ADS-B
Tue 11:39:58 AM 47.4092 -120.5970 92° East 376 433 14,600 -417 Level FlightAware ADS-B
Tue 11:40:29 AM 47.4073 -120.5180 92° East 375 432 14,100 -1,023 Descending FlightAware ADS-B
Tue 11:41:26 AM 47.4025 -120.3856 92° East 374 430 13,100 -1,424 Descending Seattle Center
Tue 11:42:27 AM 47.3986 -120.2394 92° East 361 415 11,300 -1,033 Descending Seattle Center
Tue 11:43:28 AM 47.3953 -120.0942 92° East 326 375 11,000 -295 Descending Seattle Center
Tue 11:44:29 AM 47.3928 -119.9753 92° East 291 335 10,700 -1,131 Descending Seattle Center
Tue 11:45:30 AM 47.3944 -119.8583 89° East 288 331 8,700 -2,066 Descending Seattle Center
Tue 11:46:31 AM 47.4008 -119.7447 85° East 280 322 6,500 -1,672 Descending Seattle Center
Tue 11:47:32 AM 47.4089 -119.6292 84° East 275 316 5,300 -1,180 Descending Seattle Center
Tue 11:49:00 AM 47.3251 -119.4990 134° Southeast  Level Estimated
Tue 11:56:00 AM 47.2000 -119.3167 161° South  Level FlightAware Approximate
Tue 11:57:00 AM 47.2086 -119.3191 161° South  Level Estimated
Tue 11:58:00 AM 47.2086 -119.3191 161° South  Level Estimated
Tue 11:59:00 AM 47.2086 -119.3191 161° South  Level Estimated
Tue 12:00:00 PM 47.2086 -119.3191 161° South  Level Estimated
Tue 12:01:00 PM 47.2086 -119.3191 161° South  Level Estimated

Login

Don't have an account? Register now (free) for customized features, flight alerts, and more!